Time;durP1;ratioP1;P1;durP2;ratioP2;P2;SDS_P1;SDS_P2;PMS_P1;PMS_P2;Temp;Humidity;BMP_temperature;BMP_pressure;BME280_temperature;BME280_humidity;BME280_pressure;Samples;Min_cycle;Max_cycle;Signal;HPM_P1;HPM_P2
2023/05/14 00:01:42;;;;;;;13.18;8.35;;;;;;;14.46;100.00;101778.66;5080410;28;20125;-52
2023/05/14 00:04:10;;;;;;;14.93;9.10;;;;;;;14.38;100.00;101779.16;5084111;28;20070;-52
2023/05/14 00:06:38;;;;;;;12.75;9.30;;;;;;;14.34;100.00;101783.81;5081975;28;20060;-50
2023/05/14 00:09:06;;;;;;;11.90;9.35;;;;;;;14.22;100.00;101784.63;5084029;28;20063;-52
2023/05/14 00:11:36;;;;;;;13.57;9.20;;;;;;;14.16;100.00;101780.56;5081167;28;20040;-52
2023/05/14 00:14:04;;;;;;;14.23;9.20;;;;;;;14.08;100.00;101788.16;5080341;28;20089;-53
2023/05/14 00:16:32;;;;;;;12.98;10.02;;;;;;;14.02;100.00;101786.75;5064167;28;20425;-62
2023/05/14 00:19:01;;;;;;;14.93;10.15;;;;;;;14.01;100.00;101793.00;5078558;28;20044;-64
2023/05/14 00:21:30;;;;;;;13.38;9.70;;;;;;;14.02;100.00;101786.75;5081892;28;20043;-63
2023/05/14 00:23:58;;;;;;;12.82;9.20;;;;;;;14.07;100.00;101790.91;5078452;28;20061;-64
2023/05/14 00:26:26;;;;;;;14.88;9.63;;;;;;;14.00;100.00;101780.75;5082146;28;20032;-63
2023/05/14 00:28:56;;;;;;;14.73;9.40;;;;;;;14.02;100.00;101776.19;5078349;28;20036;-62
2023/05/14 00:31:24;;;;;;;12.98;9.15;;;;;;;13.92;100.00;101777.75;5078279;28;20422;-62
2023/05/14 00:33:52;;;;;;;15.45;10.27;;;;;;;13.82;100.00;101771.34;5081140;28;20044;-63
2023/05/14 00:36:20;;;;;;;13.50;10.38;;;;;;;13.73;100.00;101774.56;5082557;28;20064;-62
2023/05/14 00:38:49;;;;;;;17.08;10.07;;;;;;;13.60;100.00;101767.41;5078304;28;20106;-63
2023/05/14 00:41:17;;;;;;;17.13;10.38;;;;;;;13.56;100.00;101763.28;5081455;28;20063;-63
2023/05/14 00:43:45;;;;;;;16.77;10.88;;;;;;;13.53;100.00;101774.88;5082197;28;20112;-62
2023/05/14 00:46:16;;;;;;;14.20;10.48;;;;;;;13.47;100.00;101771.78;5090510;28;20043;-62
2023/05/14 00:48:44;;;;;;;16.55;11.20;;;;;;;13.38;100.00;101767.09;5083821;28;20135;-64
2023/05/14 00:51:13;;;;;;;15.50;10.43;;;;;;;13.32;100.00;101761.22;5076501;28;20072;-64
2023/05/14 00:53:41;;;;;;;16.35;10.75;;;;;;;13.25;100.00;101762.53;5076153;28;20048;-64
2023/05/14 00:56:10;;;;;;;18.00;11.02;;;;;;;13.19;100.00;101769.03;5080880;28;20106;-63
2023/05/14 00:58:38;;;;;;;15.60;11.50;;;;;;;13.19;100.00;101762.91;5079548;28;20052;-55
2023/05/14 01:01:09;;;;;;;16.98;11.25;;;;;;;13.16;100.00;101749.91;5077839;28;20057;-53
2023/05/14 01:03:42;;;;;;;14.90;10.50;;;;;;;13.14;100.00;101754.41;5079099;28;20563;-52
2023/05/14 01:06:18;;;;;;;15.85;11.05;;;;;;;13.22;100.00;101748.66;5085182;28;20196;-52
2023/05/14 01:08:59;;;;;;;14.82;10.85;;;;;;;13.20;100.00;101754.03;5080910;28;20052;-52
2023/05/14 01:11:31;;;;;;;14.15;10.73;;;;;;;13.12;100.00;101757.16;5075649;28;20067;-52
2023/05/14 01:14:06;;;;;;;17.55;11.75;;;;;;;13.07;100.00;101755.75;5080308;28;20128;-53
2023/05/14 01:16:35;;;;;;;15.88;10.75;;;;;;;13.05;100.00;101753.19;5080642;28;20047;-51
2023/05/14 01:19:20;;;;;;;19.20;11.40;;;;;;;13.10;100.00;101742.34;5079619;28;20046;-52
2023/05/14 01:21:49;;;;;;;15.40;11.00;;;;;;;13.09;100.00;101751.19;5078712;28;20070;-51
2023/05/14 01:24:17;;;;;;;14.05;11.38;;;;;;;13.12;100.00;101751.03;5065654;28;20884;-51
2023/05/14 01:26:45;;;;;;;15.88;11.52;;;;;;;13.06;100.00;101746.97;5080310;28;20040;-50
2023/05/14 01:29:19;;;;;;;15.40;11.18;;;;;;;13.05;100.00;101747.03;5079111;28;20071;-51
2023/05/14 01:31:50;;;;;;;15.90;11.05;;;;;;;13.08;100.00;101746.88;5080050;28;20048;-53
2023/05/14 01:34:24;;;;;;;16.80;11.45;;;;;;;13.02;100.00;101746.31;5077390;28;20039;-53
2023/05/14 01:36:56;;;;;;;16.70;11.65;;;;;;;13.04;100.00;101742.72;5077005;28;20051;-53
2023/05/14 01:39:25;;;;;;;18.42;11.88;;;;;;;13.14;100.00;101744.72;5083619;28;20044;-54
2023/05/14 01:41:55;;;;;;;17.38;11.48;;;;;;;13.08;100.00;101741.59;5081781;28;20383;-52
2023/05/14 01:44:23;;;;;;;19.27;11.82;;;;;;;13.10;100.00;101742.34;5076809;28;20372;-53
2023/05/14 01:46:52;;;;;;;15.57;10.75;;;;;;;13.04;100.00;101734.81;5076633;28;20491;-52
2023/05/14 01:49:20;;;;;;;15.48;11.15;;;;;;;13.06;100.00;101743.47;5080241;28;20498;-52
2023/05/14 01:51:48;;;;;;;16.38;11.23;;;;;;;12.99;100.00;101737.72;5080431;28;20054;-52
2023/05/14 01:54:18;;;;;;;16.05;11.88;;;;;;;12.94;100.00;101737.13;5079802;28;20044;-53
2023/05/14 01:56:49;;;;;;;16.58;11.73;;;;;;;12.87;100.00;101736.69;5080844;28;20043;-54
2023/05/14 01:59:17;;;;;;;16.23;11.88;;;;;;;12.82;100.00;101733.47;5077208;28;20458;-49
2023/05/14 02:01:45;;;;;;;17.13;11.90;;;;;;;12.77;100.00;101732.91;5086918;28;20509;-48
2023/05/14 02:04:13;;;;;;;15.80;11.38;;;;;;;12.73;100.00;101734.03;5090992;28;20055;-50
2023/05/14 02:06:44;;;;;;;15.30;11.70;;;;;;;12.66;100.00;101738.81;5088838;28;20097;-52
2023/05/14 02:09:12;;;;;;;19.83;12.10;;;;;;;12.59;100.00;101732.22;5076759;28;20201;-54
2023/05/14 02:11:42;;;;;;;19.63;12.20;;;;;;;12.62;100.00;101737.31;5089427;28;20518;-52
2023/05/14 02:14:14;;;;;;;18.00;12.90;;;;;;;12.71;100.00;101733.25;5082224;28;20070;-54
2023/05/14 02:16:42;;;;;;;16.25;11.00;;;;;;;12.82;100.00;101733.47;5077813;28;20041;-50
2023/05/14 02:19:10;;;;;;;18.98;11.55;;;;;;;12.76;100.00;101728.56;5081705;28;20043;-52
2023/05/14 02:21:38;;;;;;;19.05;12.05;;;;;;;12.67;100.00;101728.16;5082204;28;20052;-50
2023/05/14 02:24:06;;;;;;;15.52;11.55;;;;;;;12.65;100.00;101723.91;5089872;28;20212;-52
2023/05/14 02:26:35;;;;;;;16.27;11.90;;;;;;;12.56;100.00;101717.41;5078837;28;20380;-52
2023/05/14 02:29:05;;;;;;;18.27;12.27;;;;;;;12.59;100.00;101725.13;5081116;28;20052;-51
2023/05/14 02:31:33;;;;;;;18.30;12.70;;;;;;;12.57;100.00;101719.13;5059160;28;20059;-53
2023/05/14 02:34:02;;;;;;;15.98;11.48;;;;;;;12.51;100.00;101712.38;5073596;28;20105;-53
2023/05/14 02:36:30;;;;;;;17.15;12.93;;;;;;;12.47;100.00;101716.16;5077426;28;20079;-52
2023/05/14 02:38:59;;;;;;;18.30;13.00;;;;;;;12.45;100.00;101709.28;5085152;28;20036;-51
2023/05/14 02:41:29;;;;;;;16.45;13.07;;;;;;;12.36;100.00;101712.47;5041109;28;20068;-50
2023/05/14 02:43:57;;;;;;;19.48;12.55;;;;;;;12.30;100.00;101711.06;5034569;28;20404;-49
2023/05/14 02:46:27;;;;;;;18.10;12.23;;;;;;;12.30;100.00;101717.16;5030112;28;20049;-50
2023/05/14 02:48:56;;;;;;;17.75;13.13;;;;;;;12.32;100.00;101712.66;5031909;28;20103;-52
2023/05/14 02:51:25;;;;;;;16.88;12.57;;;;;;;12.32;100.00;101714.44;5027432;28;20064;-49
2023/05/14 02:53:54;;;;;;;19.58;12.50;;;;;;;12.32;100.00;101714.44;5034082;28;20046;-51
2023/05/14 02:56:22;;;;;;;17.45;12.25;;;;;;;12.26;100.00;101713.00;5040759;28;20045;-51
2023/05/14 02:58:51;;;;;;;19.30;12.98;;;;;;;12.26;100.00;101714.81;5047654;28;20166;-59
2023/05/14 03:01:20;;;;;;;16.95;12.48;;;;;;;12.23;100.00;101718.47;5050077;28;20460;-52
2023/05/14 03:03:50;;;;;;;16.75;11.65;;;;;;;12.14;100.00;101713.72;5054836;28;20446;-63
2023/05/14 03:06:19;;;;;;;15.57;12.52;;;;;;;12.21;100.00;101714.22;5051948;28;20449;-63
2023/05/14 03:08:48;;;;;;;18.35;12.13;;;;;;;12.10;100.00;101706.94;5046366;28;20044;-63
2023/05/14 03:11:16;;;;;;;16.80;11.75;;;;;;;12.16;100.00;101720.59;5048772;28;20056;-63
2023/05/14 03:13:44;;;;;;;14.38;10.95;;;;;;;12.17;100.00;101713.53;5050354;28;20091;-63
2023/05/14 03:16:13;;;;;;;19.20;12.27;;;;;;;12.03;100.00;101705.59;5050801;28;20052;-63
2023/05/14 03:18:41;;;;;;;20.05;12.40;;;;;;;11.95;100.00;101706.88;5048314;28;20102;-63
2023/05/14 03:21:11;;;;;;;17.02;11.73;;;;;;;11.94;100.00;101709.56;5042359;28;20048;-63
2023/05/14 03:23:40;;;;;;;18.23;12.00;;;;;;;11.97;100.00;101707.63;5052427;28;20504;-52
2023/05/14 03:26:11;;;;;;;17.90;11.98;;;;;;;11.96;100.00;101699.81;5050990;28;20056;-51
2023/05/14 03:28:40;;;;;;;15.30;11.57;;;;;;;11.91;100.00;101700.03;5036508;28;20053;-53
2023/05/14 03:31:08;;;;;;;18.00;12.38;;;;;;;11.89;100.00;101691.38;5045642;28;20124;-52
2023/05/14 03:33:36;;;;;;;21.00;12.35;;;;;;;11.78;100.00;101697.25;5036189;28;20072;-52
2023/05/14 03:36:05;;;;;;;16.15;11.55;;;;;;;11.77;100.00;101694.72;5036699;28;20045;-49
2023/05/14 03:38:35;;;;;;;19.35;12.00;;;;;;;11.79;100.00;101695.47;5039924;28;20551;-51
2023/05/14 03:41:04;;;;;;;15.55;12.13;;;;;;;11.73;100.00;101680.00;5058306;28;20056;-63
2023/05/14 03:43:32;;;;;;;16.52;12.25;;;;;;;11.69;100.00;101689.03;5055164;28;20053;-53
2023/05/14 03:46:00;;;;;;;16.50;12.02;;;;;;;11.61;100.00;101694.72;5059233;28;20041;-63
2023/05/14 03:48:28;;;;;;;17.92;12.70;;;;;;;11.61;100.00;101692.09;5057972;28;20382;-63
2023/05/14 03:50:59;;;;;;;17.17;12.05;;;;;;;11.53;100.00;101692.50;5060123;28;20458;-62
2023/05/14 03:53:27;;;;;;;18.30;13.02;;;;;;;11.50;100.00;101682.16;5052583;28;20516;-63
2023/05/14 03:55:56;;;;;;;17.95;12.70;;;;;;;11.47;100.00;101684.97;5069755;28;20128;-63
2023/05/14 03:58:24;;;;;;;15.48;12.40;;;;;;;11.44;100.00;101679.88;5071120;28;20048;-63
2023/05/14 04:00:52;;;;;;;16.77;12.25;;;;;;;11.45;100.00;101684.19;5072437;28;20041;-63
2023/05/14 04:03:24;;;;;;;18.52;12.68;;;;;;;11.40;100.00;101680.94;5076526;28;20121;-64
2023/05/14 04:05:52;;;;;;;17.23;12.75;;;;;;;11.37;100.00;101687.25;5071586;28;20032;-63
2023/05/14 04:08:20;;;;;;;19.23;13.40;;;;;;;11.37;100.00;101678.50;5075245;28;20429;-63
2023/05/14 04:10:48;;;;;;;17.17;12.80;;;;;;;11.28;100.00;101680.69;5074023;28;20078;-64
2023/05/14 04:13:18;;;;;;;17.27;13.20;;;;;;;11.21;100.00;101678.47;5076211;28;20582;-63
2023/05/14 04:15:46;;;;;;;18.52;13.40;;;;;;;11.14;100.00;101676.19;5070909;28;20044;-63
2023/05/14 04:18:14;;;;;;;18.05;13.63;;;;;;;11.16;100.00;101684.00;5069968;28;20348;-63
2023/05/14 04:20:42;;;;;;;17.70;13.88;;;;;;;11.14;100.00;101680.63;5068213;28;20059;-63
2023/05/14 04:23:10;;;;;;;19.60;13.85;;;;;;;11.18;100.00;101681.28;5070494;28;20044;-63
2023/05/14 04:25:38;;;;;;;18.42;13.38;;;;;;;11.18;100.00;101678.66;5070660;28;20740;-63
2023/05/14 04:28:06;;;;;;;19.65;13.90;;;;;;;11.14;100.00;101683.25;5076446;28;20424;-63
2023/05/14 04:30:36;;;;;;;18.10;13.25;;;;;;;11.16;100.00;101682.22;5067904;28;20056;-63
2023/05/14 04:33:05;;;;;;;20.55;13.65;;;;;;;11.15;100.00;101680.53;5076105;28;20051;-63
2023/05/14 04:35:33;;;;;;;21.33;14.23;;;;;;;11.10;100.00;101689.63;5063954;28;20148;-62
2023/05/14 04:38:01;;;;;;;21.30;13.70;;;;;;;11.08;100.00;101691.47;5074876;28;20071;-63
2023/05/14 04:40:30;;;;;;;24.45;14.55;;;;;;;11.06;100.00;101693.34;5083725;28;21956;-63
2023/05/14 04:42:58;;;;;;;22.60;14.45;;;;;;;11.03;100.00;101690.84;5059496;27;20054;-63
2023/05/14 04:45:27;;;;;;;19.80;14.40;;;;;;;11.10;100.00;101686.97;5057893;28;20048;-63
2023/05/14 04:47:56;;;;;;;21.25;14.93;;;;;;;11.09;100.00;101691.38;5074229;28;20127;-63
2023/05/14 04:50:24;;;;;;;23.77;14.85;;;;;;;11.14;100.00;101685.88;5074637;28;20510;-51
2023/05/14 04:52:54;;;;;;;23.40;13.75;;;;;;;11.21;100.00;101692.50;5077300;28;20044;-50
2023/05/14 04:55:23;;;;;;;21.60;14.13;;;;;;;11.20;100.00;101690.81;5077417;28;20055;-50
2023/05/14 04:57:51;;;;;;;23.67;14.80;;;;;;;11.28;100.00;101685.97;5076516;28;20748;-51
2023/05/14 05:00:20;;;;;;;18.52;14.82;;;;;;;11.33;100.00;101686.56;5049972;28;20047;-52
2023/05/14 05:02:49;;;;;;;20.73;15.68;;;;;;;11.39;100.00;101693.28;5074175;28;20036;-52
2023/05/14 05:05:19;;;;;;;23.45;15.77;;;;;;;11.39;100.00;101689.81;5070633;28;20060;-53
2023/05/14 05:07:47;;;;;;;21.83;15.30;;;;;;;11.46;100.00;101684.09;5070323;28;20488;-53
2023/05/14 05:10:17;;;;;;;22.48;14.45;;;;;;;11.51;100.00;101691.75;5072737;28;20045;-50
2023/05/14 05:12:46;;;;;;;19.77;14.60;;;;;;;11.48;100.00;101694.56;5072041;28;20502;-53
2023/05/14 05:15:14;;;;;;;19.70;14.57;;;;;;;11.50;100.00;101696.16;5067189;28;20453;-51
2023/05/14 05:17:42;;;;;;;23.65;14.32;;;;;;;11.53;100.00;101692.50;5068947;28;20114;-52
2023/05/14 05:20:12;;;;;;;20.40;14.80;;;;;;;11.59;100.00;101699.22;5072459;28;20053;-53
2023/05/14 05:22:41;;;;;;;21.83;14.07;;;;;;;11.66;100.00;101688.25;5079291;28;20498;-52
2023/05/14 05:25:11;;;;;;;20.27;14.93;;;;;;;11.69;100.00;101702.22;5075691;28;20506;-63
2023/05/14 05:27:39;;;;;;;19.42;14.43;;;;;;;11.78;100.00;101694.63;5070468;28;20507;-53
2023/05/14 05:30:08;;;;;;;20.90;14.43;;;;;;;11.80;100.00;101702.44;5068944;28;20560;-51
2023/05/14 05:32:37;;;;;;;22.30;14.35;;;;;;;11.77;100.00;101697.34;5075890;28;20453;-53
2023/05/14 05:35:06;;;;;;;22.00;14.52;;;;;;;11.87;100.00;101702.94;5060915;28;20125;-63
2023/05/14 05:37:34;;;;;;;23.23;14.77;;;;;;;11.91;100.00;101705.31;5067263;28;20486;-53
2023/05/14 05:40:09;;;;;;;22.17;14.52;;;;;;;11.95;100.00;101703.38;5075894;28;20487;-52
2023/05/14 05:42:37;;;;;;;20.45;14.63;;;;;;;12.01;100.00;101705.66;5075397;28;20055;-62
2023/05/14 05:45:06;;;;;;;18.50;13.70;;;;;;;12.09;100.00;101702.59;5077973;28;20076;-52
2023/05/14 05:47:35;;;;;;;20.90;13.75;;;;;;;12.20;100.00;101694.06;5078973;28;20181;-63
2023/05/14 05:50:03;;;;;;;21.88;13.80;;;;;;;12.25;100.00;101703.38;5071345;28;20396;-62
2023/05/14 05:52:31;;;;;;;22.42;13.43;;;;;;;12.33;100.00;101702.94;5072146;28;20050;-63
2023/05/14 05:54:59;;;;;;;19.58;13.35;;;;;;;12.41;100.00;101702.50;5072628;28;20044;-63
2023/05/14 05:57:29;;;;;;;18.08;13.02;;;;;;;12.49;100.00;101705.53;5075868;28;20495;-63
2023/05/14 05:59:57;;;;;;;19.63;13.20;;;;;;;12.57;100.00;101710.34;5059237;28;20101;-54
2023/05/14 06:02:25;;;;;;;17.55;12.82;;;;;;;12.66;100.00;101707.16;5072564;28;20044;-64
2023/05/14 06:04:54;;;;;;;18.90;13.52;;;;;;;12.75;100.00;101713.66;5064902;28;20438;-62
2023/05/14 06:07:22;;;;;;;19.55;13.90;;;;;;;12.83;100.00;101714.91;5075851;28;20114;-62
2023/05/14 06:09:50;;;;;;;21.65;13.85;;;;;;;12.92;100.00;101712.63;5074141;28;20063;-63
2023/05/14 06:12:18;;;;;;;19.48;13.30;;;;;;;13.01;100.00;101712.91;5071165;28;20040;-64
2023/05/14 06:14:47;;;;;;;20.95;13.02;;;;;;;13.11;100.00;101712.34;5075058;28;20122;-63
2023/05/14 06:17:16;;;;;;;19.38;13.00;;;;;;;13.23;100.00;101710.75;5071606;28;20435;-52
2023/05/14 06:19:44;;;;;;;18.45;12.73;;;;;;;13.30;100.00;101704.97;5078111;28;20046;-54
2023/05/14 06:22:13;;;;;;;18.63;12.82;;;;;;;13.41;100.00;101706.13;5080131;28;20036;-52
2023/05/14 06:24:41;;;;;;;19.00;13.05;;;;;;;13.51;100.00;101707.22;5070226;28;20044;-53
2023/05/14 06:27:10;;;;;;;19.92;12.10;;;;;;;13.60;100.00;101704.00;5078108;28;20107;-52
2023/05/14 06:29:38;;;;;;;17.25;12.35;;;;;;;13.75;100.00;101714.53;5069654;28;20064;-53
2023/05/14 06:32:09;;;;;;;17.55;12.25;;;;;;;13.89;100.00;101711.81;5070908;28;20048;-51
2023/05/14 06:34:37;;;;;;;18.90;11.90;;;;;;;14.02;100.00;101712.72;5067026;28;20048;-53
2023/05/14 06:37:05;;;;;;;18.10;12.57;;;;;;;14.16;100.00;101717.09;5071406;28;20094;-50
2023/05/14 06:39:34;;;;;;;21.90;13.52;;;;;;;14.26;100.00;101705.91;5072902;28;20044;-53
2023/05/14 06:42:02;;;;;;;17.88;12.60;;;;;;;14.37;100.00;101709.53;5074292;28;20056;-53
2023/05/14 06:44:30;;;;;;;16.80;12.40;;;;;;;14.50;100.00;101709.53;5066991;28;20067;-52
2023/05/14 06:46:58;;;;;;;17.48;12.00;;;;;;;14.64;100.00;101713.06;5067308;28;20476;-62
2023/05/14 06:49:28;;;;;;;14.65;10.82;;;;;;;14.79;100.00;101708.50;5075304;28;20050;-64
2023/05/14 06:51:56;;;;;;;17.27;11.38;;;;;;;14.95;100.00;101705.66;5067268;28;20128;-62
2023/05/14 06:54:24;;;;;;;18.52;10.75;;;;;;;15.11;100.00;101708.06;5078751;28;20039;-63
2023/05/14 06:56:53;;;;;;;14.25;11.18;;;;;;;15.32;100.00;101705.69;5075396;28;20524;-64
2023/05/14 06:59:21;;;;;;;18.27;12.18;;;;;;;15.53;100.00;101698.00;5074308;28;20043;-64
2023/05/14 07:01:49;;;;;;;15.43;10.75;;;;;;;15.67;100.00;101703.13;5073213;28;20085;-64
2023/05/14 07:04:17;;;;;;;17.98;10.85;;;;;;;15.86;100.00;101694.69;5073316;28;20072;-65
2023/05/14 07:06:47;;;;;;;16.52;11.32;;;;;;;16.04;100.00;101705.72;5075897;28;20055;-64
2023/05/14 07:09:16;;;;;;;15.80;10.30;;;;;;;16.21;100.00;101700.97;5074335;28;20502;-62
2023/05/14 07:11:44;;;;;;;15.15;10.75;;;;;;;16.36;100.00;101705.13;5072696;28;20114;-52
2023/05/14 07:14:12;;;;;;;14.52;10.38;;;;;;;16.48;100.00;101702.50;5069749;28;20048;-53
2023/05/14 07:16:41;;;;;;;15.55;9.88;;;;;;;16.63;100.00;101703.13;5074668;28;20068;-53
2023/05/14 07:19:09;;;;;;;14.73;10.65;;;;;;;16.70;100.00;101694.56;5081070;28;20032;-64
2023/05/14 07:21:38;;;;;;;15.00;10.35;;;;;;;16.89;100.00;101699.31;5075024;28;20072;-64
2023/05/14 07:24:07;;;;;;;14.00;10.65;;;;;;;17.03;100.00;101700.88;5078271;28;20083;-64
2023/05/14 07:26:36;;;;;;;15.57;9.82;;;;;;;17.23;100.00;101699.31;5073480;28;20052;-62
2023/05/14 07:29:04;;;;;;;14.60;10.13;;;;;;;17.38;100.00;101686.59;5073264;28;20068;-63
2023/05/14 07:31:32;;;;;;;14.98;9.75;;;;;;;17.55;100.00;101685.22;5060582;28;20056;-63
2023/05/14 07:34:00;;;;;;;11.90;8.15;;;;;;;17.77;100.00;101687.94;5060531;28;20472;-63
2023/05/14 07:36:29;;;;;;;16.45;9.38;;;;;;;17.95;100.00;101691.75;5062506;28;20120;-54
2023/05/14 07:39:00;;;;;;;14.90;8.80;;;;;;;18.22;100.00;101685.91;5054376;28;20095;-51
2023/05/14 07:41:29;;;;;;;12.80;9.15;;;;;;;18.37;100.00;101690.94;5054799;28;20052;-55
2023/05/14 07:43:57;;;;;;;13.07;8.48;;;;;;;18.42;100.00;101688.72;5051382;28;20045;-54
2023/05/14 07:46:26;;;;;;;11.00;7.57;;;;;;;18.47;100.00;101685.66;5052411;28;20095;-62
2023/05/14 07:48:54;;;;;;;13.15;7.57;;;;;;;18.64;100.00;101671.75;5053190;28;20230;-63
2023/05/14 07:51:22;;;;;;;12.38;7.47;;;;;;;18.78;100.00;101669.69;5052360;28;20128;-64
2023/05/14 07:53:51;;;;;;;12.93;7.18;;;;;;;18.95;100.00;101665.59;5048908;28;20492;-64
2023/05/14 07:56:19;;;;;;;11.98;7.40;;;;;;;19.19;100.00;101671.41;5050730;28;20045;-65
2023/05/14 07:58:50;;;;;;;10.63;6.80;;;;;;;19.33;100.00;101672.81;5051817;28;20047;-64
2023/05/14 08:01:18;;;;;;;9.43;6.63;;;;;;;19.58;100.00;101670.66;5053579;28;20045;-63
2023/05/14 08:03:46;;;;;;;12.38;7.53;;;;;;;19.77;100.00;101664.47;5051266;28;20310;-64
2023/05/14 08:06:15;;;;;;;9.85;6.85;;;;;;;19.97;100.00;101667.16;5053820;28;20071;-63
2023/05/14 08:08:43;;;;;;;10.88;7.22;;;;;;;20.04;100.00;101665.59;5054126;28;20049;-63
2023/05/14 08:11:14;;;;;;;11.25;7.07;;;;;;;20.01;100.00;101673.91;5059529;28;20123;-63
2023/05/14 08:13:44;;;;;;;10.40;6.80;;;;;;;20.04;100.00;101671.78;5057444;28;20041;-63
2023/05/14 08:16:14;;;;;;;12.38;6.68;;;;;;;20.28;100.00;101667.81;5056609;28;20052;-64
2023/05/14 08:18:42;;;;;;;10.75;6.85;;;;;;;20.42;100.00;101664.69;5056823;28;20492;-63
2023/05/14 08:21:10;;;;;;;10.27;6.07;;;;;;;20.74;100.00;101668.81;5053450;28;20049;-56
2023/05/14 08:23:38;;;;;;;10.90;5.90;;;;;;;20.91;100.00;101669.03;5055693;28;20056;-56
2023/05/14 08:26:07;;;;;;;10.13;5.50;;;;;;;21.17;100.00;101663.81;5044945;28;20044;-55
2023/05/14 08:28:35;;;;;;;8.93;5.30;;;;;;;21.47;100.00;101658.28;5055866;28;20666;-54
2023/05/14 08:31:03;;;;;;;9.15;5.70;;;;;;;21.59;100.00;101663.28;5060019;28;20067;-55
2023/05/14 08:33:33;;;;;;;10.27;5.28;;;;;;;21.80;100.00;101659.47;5057290;28;20123;-54
2023/05/14 08:36:01;;;;;;;9.77;5.10;;;;;;;21.87;100.00;101667.72;5053307;28;20097;-61
2023/05/14 08:38:29;;;;;;;12.25;5.60;;;;;;;22.01;99.96;101661.81;5059098;28;20040;-63
2023/05/14 08:40:58;;;;;;;9.63;5.28;;;;;;;22.17;99.95;101670.97;5053115;28;20407;-64
2023/05/14 08:43:30;;;;;;;9.77;4.88;;;;;;;22.48;97.91;101659.81;5057987;28;20052;-63
2023/05/14 08:46:01;;;;;;;8.52;4.18;;;;;;;22.74;95.51;101657.94;5056481;28;20142;-63
2023/05/14 08:48:33;;;;;;;10.07;5.57;;;;;;;22.90;88.21;101656.31;5056744;28;20480;-64
2023/05/14 08:51:02;;;;;;;8.98;4.60;;;;;;;22.82;78.52;101648.25;5053912;28;20036;-65
2023/05/14 08:53:31;;;;;;;7.65;3.95;;;;;;;22.81;74.77;101651.94;5055040;28;20045;-65
2023/05/14 08:56:01;;;;;;;9.25;3.72;;;;;;;22.81;72.69;101646.56;5051778;28;20052;-64
2023/05/14 08:58:29;;;;;;;6.43;4.00;;;;;;;22.82;71.68;101653.63;5052613;28;20919;-65
2023/05/14 09:00:57;;;;;;;8.18;3.88;;;;;;;22.92;69.53;101648.97;5059616;28;20048;-65
2023/05/14 09:03:25;;;;;;;7.13;4.20;;;;;;;23.03;72.73;101640.63;5071221;28;20097;-64
2023/05/14 09:05:56;;;;;;;8.70;4.55;;;;;;;23.34;72.69;101641.88;5069301;28;20052;-55
2023/05/14 09:08:27;;;;;;;7.18;3.65;;;;;;;23.44;67.76;101643.41;5050654;28;20034;-53
2023/05/14 09:10:55;;;;;;;8.00;3.80;;;;;;;23.61;66.51;101638.94;5051287;28;20454;-55
2023/05/14 09:13:23;;;;;;;6.95;3.75;;;;;;;23.45;66.00;101634.38;5052843;28;20430;-55
2023/05/14 09:15:55;;;;;;;6.15;3.40;;;;;;;23.72;65.23;101635.03;5060076;28;20045;-55
2023/05/14 09:18:26;;;;;;;8.02;3.63;;;;;;;23.79;61.78;101636.06;5060895;28;20395;-56
2023/05/14 09:20:56;;;;;;;8.68;4.20;;;;;;;23.89;65.02;101627.88;5055430;28;20052;-54
2023/05/14 09:23:25;;;;;;;6.95;3.63;;;;;;;23.91;65.98;101627.69;5053222;28;20060;-56
2023/05/14 09:25:54;;;;;;;7.28;3.40;;;;;;;24.20;61.28;101626.31;5056564;28;20047;-57
2023/05/14 09:28:23;;;;;;;7.05;3.70;;;;;;;24.35;58.32;101629.97;5053730;28;21540;-54
2023/05/14 09:30:51;;;;;;;9.18;3.20;;;;;;;24.57;56.16;101616.78;5051021;28;20049;-56
2023/05/14 09:33:27;;;;;;;6.57;3.33;;;;;;;24.62;55.97;101619.81;5054100;28;20052;-56
2023/05/14 09:36:01;;;;;;;7.07;2.70;;;;;;;24.89;49.49;101618.53;5054176;28;20055;-56
2023/05/14 09:38:29;;;;;;;7.07;3.22;;;;;;;25.09;55.45;101620.78;5034452;28;20503;-56
2023/05/14 09:40:58;;;;;;;7.32;3.60;;;;;;;25.18;55.00;101610.78;5056088;28;20048;-56
2023/05/14 09:43:29;;;;;;;6.80;4.25;;;;;;;25.18;54.03;101614.31;5061057;28;20044;-55
2023/05/14 09:45:57;;;;;;;10.30;4.40;;;;;;;25.34;55.78;101605.31;5053590;28;20057;-55
2023/05/14 09:48:25;;;;;;;7.80;4.22;;;;;;;25.37;53.68;101607.66;5052596;28;20090;-55
2023/05/14 09:50:53;;;;;;;7.30;4.95;;;;;;;25.52;59.95;101604.19;5051827;28;20066;-56
2023/05/14 09:53:23;;;;;;;9.95;5.47;;;;;;;25.60;56.83;101604.94;5054381;28;20098;-64
2023/05/14 09:55:51;;;;;;;8.95;4.72;;;;;;;25.81;57.50;101603.44;5049477;28;20114;-65
2023/05/14 09:58:19;;;;;;;9.80;5.78;;;;;;;25.82;60.98;101599.72;5034048;28;20091;-65
2023/05/14 10:00:48;;;;;;;8.60;5.53;;;;;;;25.86;60.57;101600.19;5052217;28;20053;-64
2023/05/14 10:03:17;;;;;;;8.77;5.75;;;;;;;25.64;59.39;101602.75;5054986;28;20107;-66
2023/05/14 10:05:49;;;;;;;9.20;4.50;;;;;;;25.85;56.53;101599.38;5050890;28;20571;-64
2023/05/14 10:08:25;;;;;;;7.65;4.97;;;;;;;25.77;56.23;101597.56;5049716;28;20094;-64
2023/05/14 10:10:55;;;;;;;8.80;5.30;;;;;;;26.04;56.22;101598.03;5054374;28;20137;-64
2023/05/14 10:13:31;;;;;;;7.82;5.70;;;;;;;26.07;55.79;101596.81;5048417;28;20049;-65
2023/05/14 10:16:08;;;;;;;9.85;5.60;;;;;;;26.11;60.03;101598.09;5056399;28;20044;-65
2023/05/14 10:18:40;;;;;;;10.10;5.70;;;;;;;26.35;56.70;101594.31;5052488;28;20044;-63
2023/05/14 10:21:10;;;;;;;;;;;;;;;26.40;57.45;101597.28;5049950;28;20734;-64
2023/05/14 10:23:40;;;;;;;7.93;6.10;;;;;;;26.41;54.73;101598.09;5051247;28;19928;-64
2023/05/14 10:26:10;;;;;;;8.90;5.53;;;;;;;26.45;54.75;101589.47;5055657;28;20086;-65
2023/05/14 10:28:38;;;;;;;8.02;5.18;;;;;;;26.50;56.40;101594.28;5055519;28;20044;-65
2023/05/14 10:31:09;;;;;;;8.40;5.10;;;;;;;26.18;52.96;101587.41;5054231;28;20050;-65
2023/05/14 10:33:49;;;;;;;6.65;4.55;;;;;;;26.44;49.68;101587.78;5058287;28;20045;-64
2023/05/14 10:36:18;;;;;;;8.23;4.68;;;;;;;26.49;50.26;101582.69;5048618;28;20095;-65
2023/05/14 10:38:55;;;;;;;8.13;3.83;;;;;;;26.88;49.72;101593.34;5057008;28;20495;-64
2023/05/14 10:41:24;;;;;;;7.07;4.10;;;;;;;27.12;47.62;101582.19;5049912;28;20381;-63
2023/05/14 10:43:52;;;;;;;6.25;4.07;;;;;;;27.20;41.28;101577.66;5051674;28;20052;-64
2023/05/14 10:46:23;;;;;;;8.02;3.45;;;;;;;27.14;42.40;101568.50;5050583;28;20048;-65
2023/05/14 10:48:52;;;;;;;8.05;3.10;;;;;;;27.54;41.31;101562.63;5054095;28;20047;-64
2023/05/14 10:51:21;;;;;;;6.18;3.20;;;;;;;27.67;40.46;101568.16;5054922;28;20052;-64
2023/05/14 10:53:52;;;;;;;6.07;3.08;;;;;;;27.55;40.34;101567.84;5051870;28;20060;-65
2023/05/14 10:56:21;;;;;;;6.20;3.03;;;;;;;27.89;38.82;101568.91;5045190;28;20045;-66
2023/05/14 10:58:50;;;;;;;6.45;2.90;;;;;;;28.06;37.90;101563.22;5053319;28;20370;-65
2023/05/14 11:01:18;;;;;;;7.13;3.17;;;;;;;27.98;35.33;101559.63;5056798;28;20049;-64
2023/05/14 11:03:46;;;;;;;5.35;3.03;;;;;;;27.86;37.40;101560.41;5053039;28;20094;-65
2023/05/14 11:06:15;;;;;;;5.55;3.15;;;;;;;27.88;37.00;101550.22;5053079;28;20055;-64
2023/05/14 11:08:45;;;;;;;5.78;3.33;;;;;;;27.92;40.93;101559.59;5051379;28;20398;-63
2023/05/14 11:11:17;;;;;;;5.00;2.90;;;;;;;28.35;36.60;101554.03;5056094;28;20119;-65
2023/05/14 11:13:46;;;;;;;;;;;;;;;28.46;35.60;101542.63;5059463;28;20045;-67
2023/05/14 11:16:17;;;;;;;7.22;2.97;;;;;;;28.38;37.28;101545.50;5058101;28;19943;-64
2023/05/14 11:19:00;;;;;;;9.57;3.28;;;;;;;28.16;38.32;101551.03;5060959;28;20400;-64